sensor_id;sensor_type;location;lat;lon;timestamp;P1;durP1;ratioP1;P2;durP2;ratioP2
30970;SDS011;17651;52.262;10.498;2022-09-16T00:01:47;5.10;;;1.58;;
30970;SDS011;17651;52.262;10.498;2022-09-16T00:03:58;3.03;;;1.55;;
30970;SDS011;17651;52.262;10.498;2022-09-16T00:06:23;5.60;;;1.88;;
30970;SDS011;17651;52.262;10.498;2022-09-16T00:08:34;4.53;;;1.38;;
30970;SDS011;17651;52.262;10.498;2022-09-16T00:10:47;5.03;;;1.70;;
30970;SDS011;17651;52.262;10.498;2022-09-16T00:12:59;5.07;;;1.63;;
30970;SDS011;17651;52.262;10.498;2022-09-16T00:15:10;4.03;;;1.88;;
30970;SDS011;17651;52.262;10.498;2022-09-16T00:17:21;2.90;;;1.60;;
30970;SDS011;17651;52.262;10.498;2022-09-16T00:19:32;2.15;;;1.35;;
30970;SDS011;17651;52.262;10.498;2022-09-16T00:21:45;3.25;;;1.17;;
30970;SDS011;17651;52.262;10.498;2022-09-16T00:23:56;4.75;;;1.35;;
30970;SDS011;17651;52.262;10.498;2022-09-16T00:26:07;2.13;;;1.35;;
30970;SDS011;17651;52.262;10.498;2022-09-16T00:28:19;3.53;;;1.48;;
30970;SDS011;17651;52.262;10.498;2022-09-16T00:30:31;1.88;;;1.27;;
30970;SDS011;17651;52.262;10.498;2022-09-16T00:32:42;3.55;;;1.35;;
30970;SDS011;17651;52.262;10.498;2022-09-16T00:34:54;2.80;;;1.40;;
30970;SDS011;17651;52.262;10.498;2022-09-16T00:37:05;9.18;;;2.28;;
30970;SDS011;17651;52.262;10.498;2022-09-16T00:39:19;2.53;;;1.38;;
30970;SDS011;17651;52.262;10.498;2022-09-16T00:41:30;4.28;;;1.27;;
30970;SDS011;17651;52.262;10.498;2022-09-16T00:43:46;2.70;;;1.33;;
30970;SDS011;17651;52.262;10.498;2022-09-16T00:45:58;2.10;;;1.00;;
30970;SDS011;17651;52.262;10.498;2022-09-16T00:48:13;4.22;;;1.50;;
30970;SDS011;17651;52.262;10.498;2022-09-16T00:50:30;2.83;;;1.13;;
30970;SDS011;17651;52.262;10.498;2022-09-16T00:52:45;4.47;;;1.90;;
30970;SDS011;17651;52.262;10.498;2022-09-16T00:54:57;3.53;;;1.40;;
30970;SDS011;17651;52.262;10.498;2022-09-16T00:57:10;3.97;;;1.30;;
30970;SDS011;17651;52.262;10.498;2022-09-16T00:59:27;3.55;;;1.05;;
30970;SDS011;17651;52.262;10.498;2022-09-16T01:01:39;3.55;;;1.58;;
30970;SDS011;17651;52.262;10.498;2022-09-16T01:03:54;2.78;;;1.15;;
30970;SDS011;17651;52.262;10.498;2022-09-16T01:06:06;6.90;;;1.42;;
30970;SDS011;17651;52.262;10.498;2022-09-16T01:08:17;3.80;;;1.52;;
30970;SDS011;17651;52.262;10.498;2022-09-16T01:10:28;3.65;;;1.23;;
30970;SDS011;17651;52.262;10.498;2022-09-16T01:12:44;2.13;;;1.70;;
30970;SDS011;17651;52.262;10.498;2022-09-16T01:14:56;4.70;;;1.27;;
30970;SDS011;17651;52.262;10.498;2022-09-16T01:19:56;3.05;;;1.33;;
30970;SDS011;17651;52.262;10.498;2022-09-16T01:29:11;5.03;;;1.67;;
30970;SDS011;17651;52.262;10.498;2022-09-16T01:31:29;3.55;;;1.40;;
30970;SDS011;17651;52.262;10.498;2022-09-16T01:36:17;2.70;;;1.80;;
30970;SDS011;17651;52.262;10.498;2022-09-16T01:45:29;2.97;;;2.00;;
30970;SDS011;17651;52.262;10.498;2022-09-16T01:59:30;7.28;;;2.30;;
30970;SDS011;17651;52.262;10.498;2022-09-16T02:02:04;4.22;;;2.10;;
30970;SDS011;17651;52.262;10.498;2022-09-16T02:04:19;6.10;;;2.35;;
30970;SDS011;17651;52.262;10.498;2022-09-16T02:06:32;5.93;;;2.80;;
30970;SDS011;17651;52.262;10.498;2022-09-16T02:08:48;6.47;;;2.53;;
30970;SDS011;17651;52.262;10.498;2022-09-16T02:11:01;4.18;;;2.45;;
30970;SDS011;17651;52.262;10.498;2022-09-16T02:13:16;4.78;;;2.30;;
30970;SDS011;17651;52.262;10.498;2022-09-16T02:15:29;5.88;;;2.38;;
30970;SDS011;17651;52.262;10.498;2022-09-16T02:17:42;7.22;;;2.67;;
30970;SDS011;17651;52.262;10.498;2022-09-16T02:20:07;4.30;;;2.70;;
30970;SDS011;17651;52.262;10.498;2022-09-16T02:22:24;5.43;;;2.13;;
30970;SDS011;17651;52.262;10.498;2022-09-16T02:24:37;4.95;;;1.90;;
30970;SDS011;17651;52.262;10.498;2022-09-16T02:26:54;3.70;;;2.20;;
30970;SDS011;17651;52.262;10.498;2022-09-16T02:29:09;5.78;;;2.22;;
30970;SDS011;17651;52.262;10.498;2022-09-16T02:31:25;5.93;;;2.13;;
30970;SDS011;17651;52.262;10.498;2022-09-16T02:33:39;4.72;;;2.03;;
30970;SDS011;17651;52.262;10.498;2022-09-16T02:35:53;5.32;;;2.45;;
30970;SDS011;17651;52.262;10.498;2022-09-16T02:38:09;3.33;;;2.03;;
30970;SDS011;17651;52.262;10.498;2022-09-16T02:40:23;5.55;;;2.25;;
30970;SDS011;17651;52.262;10.498;2022-09-16T02:42:36;2.97;;;1.85;;
30970;SDS011;17651;52.262;10.498;2022-09-16T02:44:47;5.68;;;2.05;;
30970;SDS011;17651;52.262;10.498;2022-09-16T02:47:00;3.17;;;1.80;;
30970;SDS011;17651;52.262;10.498;2022-09-16T02:53:47;6.00;;;1.88;;
30970;SDS011;17651;52.262;10.498;2022-09-16T02:56:01;2.03;;;1.50;;
30970;SDS011;17651;52.262;10.498;2022-09-16T02:58:15;4.70;;;2.45;;
30970;SDS011;17651;52.262;10.498;2022-09-16T03:00:26;3.83;;;1.65;;
30970;SDS011;17651;52.262;10.498;2022-09-16T03:02:39;7.20;;;2.22;;
30970;SDS011;17651;52.262;10.498;2022-09-16T03:04:50;3.47;;;1.77;;
30970;SDS011;17651;52.262;10.498;2022-09-16T03:07:02;4.85;;;1.92;;
30970;SDS011;17651;52.262;10.498;2022-09-16T03:09:14;4.53;;;2.03;;
30970;SDS011;17651;52.262;10.498;2022-09-16T03:11:53;4.18;;;2.63;;
30970;SDS011;17651;52.262;10.498;2022-09-16T03:18:55;5.38;;;1.77;;
30970;SDS011;17651;52.262;10.498;2022-09-16T03:23:43;5.75;;;1.63;;
30970;SDS011;17651;52.262;10.498;2022-09-16T03:28:11;5.03;;;1.75;;
30970;SDS011;17651;52.262;10.498;2022-09-16T03:30:25;6.32;;;1.85;;
30970;SDS011;17651;52.262;10.498;2022-09-16T03:32:38;4.50;;;2.15;;
30970;SDS011;17651;52.262;10.498;2022-09-16T03:37:20;6.15;;;1.77;;
30970;SDS011;17651;52.262;10.498;2022-09-16T03:39:33;3.65;;;1.80;;
30970;SDS011;17651;52.262;10.498;2022-09-16T03:41:44;6.28;;;1.92;;
30970;SDS011;17651;52.262;10.498;2022-09-16T03:43:56;4.75;;;2.00;;
30970;SDS011;17651;52.262;10.498;2022-09-16T03:46:10;9.30;;;1.90;;
30970;SDS011;17651;52.262;10.498;2022-09-16T03:48:21;4.55;;;1.65;;
30970;SDS011;17651;52.262;10.498;2022-09-16T03:50:32;3.50;;;2.10;;
30970;SDS011;17651;52.262;10.498;2022-09-16T03:52:43;2.85;;;2.20;;
30970;SDS011;17651;52.262;10.498;2022-09-16T03:54:54;4.20;;;2.05;;
30970;SDS011;17651;52.262;10.498;2022-09-16T03:57:05;6.70;;;2.58;;
30970;SDS011;17651;52.262;10.498;2022-09-16T03:59:17;6.00;;;2.03;;
30970;SDS011;17651;52.262;10.498;2022-09-16T04:01:28;3.90;;;1.85;;
30970;SDS011;17651;52.262;10.498;2022-09-16T04:03:39;4.40;;;1.75;;
30970;SDS011;17651;52.262;10.498;2022-09-16T04:05:51;8.98;;;2.17;;
30970;SDS011;17651;52.262;10.498;2022-09-16T04:08:02;2.45;;;2.22;;
30970;SDS011;17651;52.262;10.498;2022-09-16T04:10:14;5.88;;;2.28;;
30970;SDS011;17651;52.262;10.498;2022-09-16T04:12:25;5.68;;;2.35;;
30970;SDS011;17651;52.262;10.498;2022-09-16T04:14:36;7.00;;;2.00;;
30970;SDS011;17651;52.262;10.498;2022-09-16T04:16:47;6.82;;;2.10;;
30970;SDS011;17651;52.262;10.498;2022-09-16T04:18:58;3.58;;;2.55;;
30970;SDS011;17651;52.262;10.498;2022-09-16T04:21:09;4.28;;;2.50;;
30970;SDS011;17651;52.262;10.498;2022-09-16T04:23:22;2.90;;;2.30;;
30970;SDS011;17651;52.262;10.498;2022-09-16T04:25:33;5.32;;;2.25;;
30970;SDS011;17651;52.262;10.498;2022-09-16T04:27:44;6.30;;;2.38;;
30970;SDS011;17651;52.262;10.498;2022-09-16T04:29:56;2.72;;;2.05;;
30970;SDS011;17651;52.262;10.498;2022-09-16T04:32:07;3.80;;;2.30;;
30970;SDS011;17651;52.262;10.498;2022-09-16T04:34:18;5.88;;;2.38;;
30970;SDS011;17651;52.262;10.498;2022-09-16T04:36:30;4.22;;;2.05;;
30970;SDS011;17651;52.262;10.498;2022-09-16T04:38:42;8.05;;;3.20;;
30970;SDS011;17651;52.262;10.498;2022-09-16T04:40:58;3.83;;;2.20;;
30970;SDS011;17651;52.262;10.498;2022-09-16T04:43:10;6.07;;;2.53;;
30970;SDS011;17651;52.262;10.498;2022-09-16T04:45:21;4.28;;;2.20;;
30970;SDS011;17651;52.262;10.498;2022-09-16T04:47:32;4.47;;;2.20;;
30970;SDS011;17651;52.262;10.498;2022-09-16T04:49:43;6.60;;;2.20;;
30970;SDS011;17651;52.262;10.498;2022-09-16T04:51:54;4.93;;;2.05;;
30970;SDS011;17651;52.262;10.498;2022-09-16T04:54:05;5.25;;;2.20;;
30970;SDS011;17651;52.262;10.498;2022-09-16T04:56:17;3.50;;;2.20;;
30970;SDS011;17651;52.262;10.498;2022-09-16T04:58:28;6.35;;;2.55;;
30970;SDS011;17651;52.262;10.498;2022-09-16T05:00:40;7.78;;;2.60;;
30970;SDS011;17651;52.262;10.498;2022-09-16T05:02:51;4.72;;;2.78;;
30970;SDS011;17651;52.262;10.498;2022-09-16T05:05:03;5.03;;;2.17;;
30970;SDS011;17651;52.262;10.498;2022-09-16T05:07:15;11.25;;;2.42;;
30970;SDS011;17651;52.262;10.498;2022-09-16T05:09:26;5.35;;;1.85;;
30970;SDS011;17651;52.262;10.498;2022-09-16T05:11:37;3.92;;;2.42;;
30970;SDS011;17651;52.262;10.498;2022-09-16T05:13:49;4.65;;;2.33;;
30970;SDS011;17651;52.262;10.498;2022-09-16T05:16:03;8.40;;;2.47;;
30970;SDS011;17651;52.262;10.498;2022-09-16T05:18:15;4.63;;;2.10;;
30970;SDS011;17651;52.262;10.498;2022-09-16T05:20:26;3.90;;;2.35;;
30970;SDS011;17651;52.262;10.498;2022-09-16T05:22:37;7.00;;;2.17;;
30970;SDS011;17651;52.262;10.498;2022-09-16T05:24:48;4.78;;;2.67;;
30970;SDS011;17651;52.262;10.498;2022-09-16T05:26:59;3.45;;;2.15;;
30970;SDS011;17651;52.262;10.498;2022-09-16T05:29:14;7.03;;;2.10;;
30970;SDS011;17651;52.262;10.498;2022-09-16T05:31:26;4.18;;;2.40;;
30970;SDS011;17651;52.262;10.498;2022-09-16T05:33:38;4.03;;;2.50;;
30970;SDS011;17651;52.262;10.498;2022-09-16T05:35:49;8.63;;;2.50;;
30970;SDS011;17651;52.262;10.498;2022-09-16T05:38:00;4.50;;;2.38;;
30970;SDS011;17651;52.262;10.498;2022-09-16T05:40:11;5.13;;;2.53;;
30970;SDS011;17651;52.262;10.498;2022-09-16T05:42:22;3.17;;;2.15;;
30970;SDS011;17651;52.262;10.498;2022-09-16T05:44:34;6.88;;;2.45;;
30970;SDS011;17651;52.262;10.498;2022-09-16T05:46:45;9.35;;;2.70;;
30970;SDS011;17651;52.262;10.498;2022-09-16T05:48:56;6.35;;;2.47;;
30970;SDS011;17651;52.262;10.498;2022-09-16T05:51:08;4.65;;;2.30;;
30970;SDS011;17651;52.262;10.498;2022-09-16T05:53:21;6.47;;;3.42;;
30970;SDS011;17651;52.262;10.498;2022-09-16T05:55:32;4.75;;;2.42;;
30970;SDS011;17651;52.262;10.498;2022-09-16T05:57:43;3.42;;;1.83;;
30970;SDS011;17651;52.262;10.498;2022-09-16T05:59:54;3.25;;;1.77;;
30970;SDS011;17651;52.262;10.498;2022-09-16T06:02:05;5.03;;;1.83;;
30970;SDS011;17651;52.262;10.498;2022-09-16T06:04:16;4.30;;;1.75;;
30970;SDS011;17651;52.262;10.498;2022-09-16T06:06:29;5.22;;;2.08;;
30970;SDS011;17651;52.262;10.498;2022-09-16T06:08:40;3.53;;;1.50;;
30970;SDS011;17651;52.262;10.498;2022-09-16T06:10:51;3.80;;;2.00;;
30970;SDS011;17651;52.262;10.498;2022-09-16T06:13:02;3.50;;;1.77;;
30970;SDS011;17651;52.262;10.498;2022-09-16T06:15:13;8.10;;;2.40;;
30970;SDS011;17651;52.262;10.498;2022-09-16T06:17:26;4.53;;;1.48;;
30970;SDS011;17651;52.262;10.498;2022-09-16T06:19:37;6.47;;;1.75;;
30970;SDS011;17651;52.262;10.498;2022-09-16T06:21:48;3.38;;;1.98;;
30970;SDS011;17651;52.262;10.498;2022-09-16T06:23:59;2.35;;;1.77;;
30970;SDS011;17651;52.262;10.498;2022-09-16T06:26:11;3.03;;;1.80;;
30970;SDS011;17651;52.262;10.498;2022-09-16T06:28:23;4.72;;;1.73;;
30970;SDS011;17651;52.262;10.498;2022-09-16T06:30:34;8.70;;;1.83;;
30970;SDS011;17651;52.262;10.498;2022-09-16T06:32:45;9.73;;;1.83;;
30970;SDS011;17651;52.262;10.498;2022-09-16T06:34:56;2.60;;;1.50;;
30970;SDS011;17651;52.262;10.498;2022-09-16T06:37:07;6.57;;;1.92;;
30970;SDS011;17651;52.262;10.498;2022-09-16T06:39:21;7.65;;;2.90;;
30970;SDS011;17651;52.262;10.498;2022-09-16T06:41:33;9.40;;;1.90;;
30970;SDS011;17651;52.262;10.498;2022-09-16T06:43:44;5.07;;;2.67;;
30970;SDS011;17651;52.262;10.498;2022-09-16T06:45:58;5.07;;;2.25;;
30970;SDS011;17651;52.262;10.498;2022-09-16T06:48:09;2.67;;;1.75;;
30970;SDS011;17651;52.262;10.498;2022-09-16T06:50:20;4.43;;;1.60;;
30970;SDS011;17651;52.262;10.498;2022-09-16T06:52:31;6.15;;;1.83;;
30970;SDS011;17651;52.262;10.498;2022-09-16T06:54:43;3.78;;;1.95;;
30970;SDS011;17651;52.262;10.498;2022-09-16T06:56:56;3.15;;;1.58;;
30970;SDS011;17651;52.262;10.498;2022-09-16T06:59:07;3.05;;;1.80;;
30970;SDS011;17651;52.262;10.498;2022-09-16T07:01:20;4.65;;;2.00;;
30970;SDS011;17651;52.262;10.498;2022-09-16T07:03:32;4.50;;;2.20;;
30970;SDS011;17651;52.262;10.498;2022-09-16T07:05:53;4.47;;;1.60;;
30970;SDS011;17651;52.262;10.498;2022-09-16T07:08:05;6.15;;;2.13;;
30970;SDS011;17651;52.262;10.498;2022-09-16T07:10:16;2.60;;;1.50;;
30970;SDS011;17651;52.262;10.498;2022-09-16T07:12:27;2.17;;;1.55;;
30970;SDS011;17651;52.262;10.498;2022-09-16T07:14:38;5.68;;;1.40;;
30970;SDS011;17651;52.262;10.498;2022-09-16T07:16:50;6.18;;;1.60;;
30970;SDS011;17651;52.262;10.498;2022-09-16T07:19:01;6.60;;;1.88;;
30970;SDS011;17651;52.262;10.498;2022-09-16T07:21:14;4.10;;;1.42;;
30970;SDS011;17651;52.262;10.498;2022-09-16T07:23:25;4.43;;;1.30;;
30970;SDS011;17651;52.262;10.498;2022-09-16T07:25:36;4.90;;;1.65;;
30970;SDS011;17651;52.262;10.498;2022-09-16T07:27:47;3.88;;;1.40;;
30970;SDS011;17651;52.262;10.498;2022-09-16T07:29:58;3.95;;;1.55;;
30970;SDS011;17651;52.262;10.498;2022-09-16T07:32:10;3.90;;;1.35;;
30970;SDS011;17651;52.262;10.498;2022-09-16T07:34:21;3.85;;;1.67;;
30970;SDS011;17651;52.262;10.498;2022-09-16T07:36:35;3.00;;;1.10;;
30970;SDS011;17651;52.262;10.498;2022-09-16T07:38:46;3.10;;;1.48;;
30970;SDS011;17651;52.262;10.498;2022-09-16T07:41:11;5.35;;;1.30;;
30970;SDS011;17651;52.262;10.498;2022-09-16T07:43:22;2.53;;;1.23;;
30970;SDS011;17651;52.262;10.498;2022-09-16T07:45:33;4.63;;;1.48;;
30970;SDS011;17651;52.262;10.498;2022-09-16T07:47:47;4.18;;;1.10;;
30970;SDS011;17651;52.262;10.498;2022-09-16T07:49:58;5.88;;;1.48;;
30970;SDS011;17651;52.262;10.498;2022-09-16T07:52:10;4.72;;;1.17;;
30970;SDS011;17651;52.262;10.498;2022-09-16T07:54:21;3.58;;;1.13;;
30970;SDS011;17651;52.262;10.498;2022-09-16T07:56:33;6.53;;;1.20;;
30970;SDS011;17651;52.262;10.498;2022-09-16T07:58:44;2.30;;;1.10;;
30970;SDS011;17651;52.262;10.498;2022-09-16T08:00:56;3.78;;;1.50;;
30970;SDS011;17651;52.262;10.498;2022-09-16T08:03:07;5.22;;;1.10;;
30970;SDS011;17651;52.262;10.498;2022-09-16T08:05:19;4.88;;;1.20;;
30970;SDS011;17651;52.262;10.498;2022-09-16T08:07:30;4.30;;;1.30;;
30970;SDS011;17651;52.262;10.498;2022-09-16T08:09:41;4.22;;;1.10;;
30970;SDS011;17651;52.262;10.498;2022-09-16T08:11:52;4.00;;;1.48;;
30970;SDS011;17651;52.262;10.498;2022-09-16T08:14:03;2.30;;;1.20;;
30970;SDS011;17651;52.262;10.498;2022-09-16T08:16:18;4.60;;;0.93;;
30970;SDS011;17651;52.262;10.498;2022-09-16T08:18:30;3.30;;;1.00;;
30970;SDS011;17651;52.262;10.498;2022-09-16T08:20:41;3.70;;;1.38;;
30970;SDS011;17651;52.262;10.498;2022-09-16T08:22:52;4.05;;;1.30;;
30970;SDS011;17651;52.262;10.498;2022-09-16T08:25:03;3.13;;;0.88;;
30970;SDS011;17651;52.262;10.498;2022-09-16T08:27:15;4.43;;;1.30;;
30970;SDS011;17651;52.262;10.498;2022-09-16T08:29:26;8.07;;;1.08;;
30970;SDS011;17651;52.262;10.498;2022-09-16T08:31:37;3.40;;;1.02;;
30970;SDS011;17651;52.262;10.498;2022-09-16T08:33:48;4.72;;;1.10;;
30970;SDS011;17651;52.262;10.498;2022-09-16T08:36:00;3.47;;;1.05;;
30970;SDS011;17651;52.262;10.498;2022-09-16T08:38:11;8.35;;;2.28;;
30970;SDS011;17651;52.262;10.498;2022-09-16T08:40:22;2.13;;;1.33;;
30970;SDS011;17651;52.262;10.498;2022-09-16T08:42:48;3.65;;;1.20;;
30970;SDS011;17651;52.262;10.498;2022-09-16T08:47:22;5.57;;;1.30;;
30970;SDS011;17651;52.262;10.498;2022-09-16T08:49:41;3.65;;;1.65;;
30970;SDS011;17651;52.262;10.498;2022-09-16T08:51:53;6.68;;;1.30;;
30970;SDS011;17651;52.262;10.498;2022-09-16T08:54:24;3.78;;;0.90;;
30970;SDS011;17651;52.262;10.498;2022-09-16T08:56:36;5.40;;;1.30;;
30970;SDS011;17651;52.262;10.498;2022-09-16T08:58:52;5.88;;;1.70;;
30970;SDS011;17651;52.262;10.498;2022-09-16T09:01:10;4.63;;;1.00;;
30970;SDS011;17651;52.262;10.498;2022-09-16T09:03:27;6.43;;;1.60;;
30970;SDS011;17651;52.262;10.498;2022-09-16T09:05:54;7.32;;;1.63;;
30970;SDS011;17651;52.262;10.498;2022-09-16T09:26:58;6.07;;;1.33;;
30970;SDS011;17651;52.262;10.498;2022-09-16T09:31:46;4.03;;;1.15;;
30970;SDS011;17651;52.262;10.498;2022-09-16T09:40:53;6.82;;;2.20;;
30970;SDS011;17651;52.262;10.498;2022-09-16T09:47:40;6.15;;;1.42;;
30970;SDS011;17651;52.262;10.498;2022-09-16T09:49:54;7.72;;;2.42;;
30970;SDS011;17651;52.262;10.498;2022-09-16T09:52:08;6.72;;;1.17;;
30970;SDS011;17651;52.262;10.498;2022-09-16T09:54:31;9.85;;;2.80;;
30970;SDS011;17651;52.262;10.498;2022-09-16T09:56:44;14.77;;;2.67;;
30970;SDS011;17651;52.262;10.498;2022-09-16T10:01:07;6.35;;;1.25;;
30970;SDS011;17651;52.262;10.498;2022-09-16T10:03:18;5.63;;;1.40;;
30970;SDS011;17651;52.262;10.498;2022-09-16T10:05:29;7.22;;;1.50;;
30970;SDS011;17651;52.262;10.498;2022-09-16T10:07:40;5.60;;;1.20;;
30970;SDS011;17651;52.262;10.498;2022-09-16T10:12:05;6.25;;;1.33;;
30970;SDS011;17651;52.262;10.498;2022-09-16T10:14:35;7.90;;;1.60;;
30970;SDS011;17651;52.262;10.498;2022-09-16T10:16:47;5.45;;;0.95;;
30970;SDS011;17651;52.262;10.498;2022-09-16T10:19:14;10.98;;;1.25;;
30970;SDS011;17651;52.262;10.498;2022-09-16T10:21:36;2.85;;;1.20;;
30970;SDS011;17651;52.262;10.498;2022-09-16T10:23:52;5.05;;;1.45;;
30970;SDS011;17651;52.262;10.498;2022-09-16T10:28:24;5.63;;;1.13;;
30970;SDS011;17651;52.262;10.498;2022-09-16T10:30:52;3.58;;;1.15;;
30970;SDS011;17651;52.262;10.498;2022-09-16T10:33:04;4.25;;;1.27;;
30970;SDS011;17651;52.262;10.498;2022-09-16T10:35:20;6.28;;;1.33;;
30970;SDS011;17651;52.262;10.498;2022-09-16T10:37:31;4.95;;;1.10;;
30970;SDS011;17651;52.262;10.498;2022-09-16T10:39:44;5.90;;;1.02;;
30970;SDS011;17651;52.262;10.498;2022-09-16T10:41:56;4.63;;;0.90;;
30970;SDS011;17651;52.262;10.498;2022-09-16T10:44:15;4.47;;;0.90;;
30970;SDS011;17651;52.262;10.498;2022-09-16T10:48:39;6.93;;;1.63;;
30970;SDS011;17651;52.262;10.498;2022-09-16T10:53:18;6.65;;;1.08;;
30970;SDS011;17651;52.262;10.498;2022-09-16T10:55:31;6.78;;;1.33;;
30970;SDS011;17651;52.262;10.498;2022-09-16T10:57:44;6.50;;;1.40;;
30970;SDS011;17651;52.262;10.498;2022-09-16T11:06:54;3.90;;;1.20;;
30970;SDS011;17651;52.262;10.498;2022-09-16T11:13:54;5.88;;;1.23;;
30970;SDS011;17651;52.262;10.498;2022-09-16T11:20:57;5.40;;;1.25;;
30970;SDS011;17651;52.262;10.498;2022-09-16T11:23:54;6.03;;;0.90;;
30970;SDS011;17651;52.262;10.498;2022-09-16T11:25:48;5.15;;;1.75;;
30970;SDS011;17651;52.262;10.498;2022-09-16T11:28:06;4.68;;;1.52;;
30970;SDS011;17651;52.262;10.498;2022-09-16T11:30:23;6.13;;;1.45;;
30970;SDS011;17651;52.262;10.498;2022-09-16T11:37:21;2.90;;;1.27;;
30970;SDS011;17651;52.262;10.498;2022-09-16T11:39:43;3.97;;;1.38;;
30970;SDS011;17651;52.262;10.498;2022-09-16T11:41:58;6.88;;;1.85;;
30970;SDS011;17651;52.262;10.498;2022-09-16T11:44:21;2.03;;;1.00;;
30970;SDS011;17651;52.262;10.498;2022-09-16T11:46:46;5.40;;;1.42;;
30970;SDS011;17651;52.262;10.498;2022-09-16T12:00:58;4.15;;;1.27;;
30970;SDS011;17651;52.262;10.498;2022-09-16T12:03:23;3.08;;;1.00;;
30970;SDS011;17651;52.262;10.498;2022-09-16T12:05:38;2.58;;;1.00;;
30970;SDS011;17651;52.262;10.498;2022-09-16T12:12:33;3.75;;;0.95;;
30970;SDS011;17651;52.262;10.498;2022-09-16T12:14:50;1.95;;;1.50;;
30970;SDS011;17651;52.262;10.498;2022-09-16T12:19:15;9.52;;;1.73;;
30970;SDS011;17651;52.262;10.498;2022-09-16T12:21:34;7.18;;;1.25;;
30970;SDS011;17651;52.262;10.498;2022-09-16T12:23:49;4.43;;;1.25;;
30970;SDS011;17651;52.262;10.498;2022-09-16T12:26:09;7.13;;;1.30;;
30970;SDS011;17651;52.262;10.498;2022-09-16T12:28:27;5.18;;;1.13;;
30970;SDS011;17651;52.262;10.498;2022-09-16T12:30:40;6.30;;;1.60;;
30970;SDS011;17651;52.262;10.498;2022-09-16T12:35:27;5.90;;;1.42;;
30970;SDS011;17651;52.262;10.498;2022-09-16T12:37:50;4.35;;;0.98;;
30970;SDS011;17651;52.262;10.498;2022-09-16T12:40:03;3.90;;;1.08;;
30970;SDS011;17651;52.262;10.498;2022-09-16T12:47:11;3.65;;;1.00;;
30970;SDS011;17651;52.262;10.498;2022-09-16T12:51:44;4.95;;;1.23;;
30970;SDS011;17651;52.262;10.498;2022-09-16T12:54:03;2.95;;;1.05;;
30970;SDS011;17651;52.262;10.498;2022-09-16T12:56:26;1.65;;;0.80;;
30970;SDS011;17651;52.262;10.498;2022-09-16T12:58:46;1.15;;;0.63;;
30970;SDS011;17651;52.262;10.498;2022-09-16T13:01:11;3.50;;;0.70;;
30970;SDS011;17651;52.262;10.498;2022-09-16T13:03:25;1.92;;;0.80;;
30970;SDS011;17651;52.262;10.498;2022-09-16T13:05:37;3.85;;;0.60;;
30970;SDS011;17651;52.262;10.498;2022-09-16T13:07:50;2.53;;;0.80;;
30970;SDS011;17651;52.262;10.498;2022-09-16T13:10:03;3.83;;;0.82;;
30970;SDS011;17651;52.262;10.498;2022-09-16T13:12:19;1.65;;;0.95;;
30970;SDS011;17651;52.262;10.498;2022-09-16T13:14:42;2.90;;;1.45;;
30970;SDS011;17651;52.262;10.498;2022-09-16T13:16:55;4.22;;;0.90;;
30970;SDS011;17651;52.262;10.498;2022-09-16T13:21:41;3.55;;;0.80;;
30970;SDS011;17651;52.262;10.498;2022-09-16T13:24:00;4.45;;;1.13;;
30970;SDS011;17651;52.262;10.498;2022-09-16T13:26:12;5.87;;;1.47;;
30970;SDS011;17651;52.262;10.498;2022-09-16T13:30:50;2.63;;;1.25;;
30970;SDS011;17651;52.262;10.498;2022-09-16T13:37:30;4.22;;;1.17;;
30970;SDS011;17651;52.262;10.498;2022-09-16T13:39:41;3.53;;;1.15;;
30970;SDS011;17651;52.262;10.498;2022-09-16T13:41:52;4.20;;;1.02;;
30970;SDS011;17651;52.262;10.498;2022-09-16T13:46:35;5.07;;;1.17;;
30970;SDS011;17651;52.262;10.498;2022-09-16T13:51:18;4.05;;;1.33;;
30970;SDS011;17651;52.262;10.498;2022-09-16T13:53:30;6.65;;;1.75;;
30970;SDS011;17651;52.262;10.498;2022-09-16T13:55:42;4.15;;;1.10;;
30970;SDS011;17651;52.262;10.498;2022-09-16T13:58:15;4.55;;;1.40;;
30970;SDS011;17651;52.262;10.498;2022-09-16T14:12:23;3.75;;;1.45;;
30970;SDS011;17651;52.262;10.498;2022-09-16T14:14:37;2.13;;;1.27;;
30970;SDS011;17651;52.262;10.498;2022-09-16T14:16:49;3.92;;;1.25;;
30970;SDS011;17651;52.262;10.498;2022-09-16T14:21:19;5.00;;;1.58;;
30970;SDS011;17651;52.262;10.498;2022-09-16T14:23:31;4.65;;;1.23;;
30970;SDS011;17651;52.262;10.498;2022-09-16T14:25:42;1.80;;;1.00;;
30970;SDS011;17651;52.262;10.498;2022-09-16T14:30:56;1.35;;;0.70;;
30970;SDS011;17651;52.262;10.498;2022-09-16T14:33:07;5.28;;;0.90;;
30970;SDS011;17651;52.262;10.498;2022-09-16T14:35:20;3.42;;;1.13;;
30970;SDS011;17651;52.262;10.498;2022-09-16T14:37:32;4.00;;;1.00;;
30970;SDS011;17651;52.262;10.498;2022-09-16T14:39:44;2.67;;;0.90;;
30970;SDS011;17651;52.262;10.498;2022-09-16T14:41:56;3.80;;;1.00;;
30970;SDS011;17651;52.262;10.498;2022-09-16T14:46:29;6.72;;;1.00;;
30970;SDS011;17651;52.262;10.498;2022-09-16T14:48:40;3.78;;;0.82;;
30970;SDS011;17651;52.262;10.498;2022-09-16T14:50:51;1.55;;;0.80;;
30970;SDS011;17651;52.262;10.498;2022-09-16T14:53:04;2.88;;;1.00;;
30970;SDS011;17651;52.262;10.498;2022-09-16T14:55:18;4.32;;;1.20;;
30970;SDS011;17651;52.262;10.498;2022-09-16T14:57:29;3.00;;;0.90;;
30970;SDS011;17651;52.262;10.498;2022-09-16T14:59:42;5.63;;;0.93;;
30970;SDS011;17651;52.262;10.498;2022-09-16T15:01:53;2.13;;;0.80;;
30970;SDS011;17651;52.262;10.498;2022-09-16T15:04:13;3.22;;;1.00;;
30970;SDS011;17651;52.262;10.498;2022-09-16T15:06:28;4.07;;;1.00;;
30970;SDS011;17651;52.262;10.498;2022-09-16T15:08:44;2.53;;;0.90;;
30970;SDS011;17651;52.262;10.498;2022-09-16T15:11:01;2.90;;;1.00;;
30970;SDS011;17651;52.262;10.498;2022-09-16T15:13:13;3.17;;;0.85;;
30970;SDS011;17651;52.262;10.498;2022-09-16T15:15:26;1.95;;;0.63;;
30970;SDS011;17651;52.262;10.498;2022-09-16T15:17:38;6.82;;;0.82;;
30970;SDS011;17651;52.262;10.498;2022-09-16T15:19:54;2.47;;;0.73;;
30970;SDS011;17651;52.262;10.498;2022-09-16T15:22:07;4.20;;;0.70;;
30970;SDS011;17651;52.262;10.498;2022-09-16T15:24:21;0.90;;;0.80;;
30970;SDS011;17651;52.262;10.498;2022-09-16T15:28:57;3.17;;;0.93;;
30970;SDS011;17651;52.262;10.498;2022-09-16T15:31:10;3.00;;;0.80;;
30970;SDS011;17651;52.262;10.498;2022-09-16T15:33:22;4.63;;;0.80;;
30970;SDS011;17651;52.262;10.498;2022-09-16T15:35:35;2.78;;;0.70;;
30970;SDS011;17651;52.262;10.498;2022-09-16T15:37:46;4.18;;;0.90;;
30970;SDS011;17651;52.262;10.498;2022-09-16T15:40:17;1.17;;;0.68;;
30970;SDS011;17651;52.262;10.498;2022-09-16T15:42:32;1.95;;;0.73;;
30970;SDS011;17651;52.262;10.498;2022-09-16T15:44:50;1.88;;;0.60;;
30970;SDS011;17651;52.262;10.498;2022-09-16T15:47:01;1.38;;;0.60;;
30970;SDS011;17651;52.262;10.498;2022-09-16T15:49:13;1.95;;;0.60;;
30970;SDS011;17651;52.262;10.498;2022-09-16T15:53:40;1.85;;;0.52;;
30970;SDS011;17651;52.262;10.498;2022-09-16T15:58:14;2.10;;;0.50;;
30970;SDS011;17651;52.262;10.498;2022-09-16T16:00:27;1.00;;;0.50;;
30970;SDS011;17651;52.262;10.498;2022-09-16T16:05:03;0.80;;;0.60;;
30970;SDS011;17651;52.262;10.498;2022-09-16T16:07:36;1.38;;;0.70;;
30970;SDS011;17651;52.262;10.498;2022-09-16T16:09:46;2.35;;;0.70;;
30970;SDS011;17651;52.262;10.498;2022-09-16T16:12:02;4.25;;;0.93;;
30970;SDS011;17651;52.262;10.498;2022-09-16T16:14:13;5.03;;;1.80;;
30970;SDS011;17651;52.262;10.498;2022-09-16T16:16:25;4.50;;;0.80;;
30970;SDS011;17651;52.262;10.498;2022-09-16T16:18:36;2.83;;;1.20;;
30970;SDS011;17651;52.262;10.498;2022-09-16T16:20:48;3.30;;;0.82;;